Observation data for Roaring Springs on 07/11/2018      Previous  Date       Current Mesonet Observations  Soil Data  Daily Summary Page  Observations in Plain Language
KRRS 110500Z 17006KT 25/18 A3012 RMK A01 T02460181  RH  071%=      5-min Rain = 0
KRRS 110505Z 16005KT 25/18 A3012 RMK A01 T02450181  RH  071%=      5-min Rain = 0
KRRS 110510Z 16005KT 24/18 A3012 RMK A01 T02430181  RH  072%=      5-min Rain = 0
KRRS 110515Z 16005KT 24/18 A3012 RMK A01 T02420182  RH  073%=      5-min Rain = 0
KRRS 110520Z 16005KT 24/18 A3012 RMK A01 T02420182  RH  073%=      5-min Rain = 0
KRRS 110525Z 16006KT 24/18 A3012 RMK A01 T02420182  RH  073%=      5-min Rain = 0
KRRS 110530Z 16005KT 24/18 A3012 RMK A01 T02420181  RH  073%=      5-min Rain = 0
KRRS 110535Z 17005KT 24/18 A3012 RMK A01 T02420182  RH  073%=      5-min Rain = 0
KRRS 110540Z 18005KT 24/18 A3012 RMK A01 T02410182  RH  073%=      5-min Rain = 0
KRRS 110545Z 18005KT 24/18 A3012 RMK A01 T02380183  RH  075%=      5-min Rain = 0
KRRS 110550Z 18005KT 24/18 A3012 RMK A01 T02370183  RH  076%=      5-min Rain = 0
KRRS 110555Z 17005KT 24/18 A3012 RMK A01 T02370182  RH  075%=      5-min Rain = 0
KRRS 110600Z 18005KT 24/18 A3011 RMK A01 T02360182  RH  076%=      5-min Rain = 0
KRRS 110605Z 18005KT 23/18 A3011 RMK A01 T02340183  RH  077%=      5-min Rain = 0
KRRS 110610Z 18005KT 23/18 A3012 RMK A01 T02320183  RH  078%=      5-min Rain = 0
KRRS 110615Z 18005KT 23/18 A3012 RMK A01 T02320182  RH  077%=      5-min Rain = 0
KRRS 110620Z 18006KT 23/18 A3012 RMK A01 T02330181  RH  077%=      5-min Rain = 0
KRRS 110625Z 18005KT 23/18 A3012 RMK A01 T02340181  RH  076%=      5-min Rain = 0
KRRS 110630Z 17005KT 23/18 A3012 RMK A01 T02330181  RH  076%=      5-min Rain = 0
KRRS 110635Z 17005KT 23/18 A3012 RMK A01 T02340180  RH  075%=      5-min Rain = 0
KRRS 110640Z 17005KT 23/18 A3012 RMK A01 T02340180  RH  075%=      5-min Rain = 0
KRRS 110645Z 18005KT 23/18 A3012 RMK A01 T02320180  RH  076%=      5-min Rain = 0
KRRS 110650Z 18005KT 23/18 A3012 RMK A01 T02310180  RH  077%=      5-min Rain = 0
KRRS 110655Z 18005KT 23/18 A3012 RMK A01 T02300180  RH  077%=      5-min Rain = 0
KRRS 110700Z 18005KT 23/18 A3012 RMK A01 T02290180  RH  078%=      5-min Rain = 0
KRRS 110705Z 18005KT 23/18 A3012 RMK A01 T02290180  RH  078%=      5-min Rain = 0
KRRS 110710Z 18006KT 23/18 A3012 RMK A01 T02290180  RH  078%=      5-min Rain = 0
KRRS 110715Z 18006KT 23/18 A3012 RMK A01 T02280181  RH  079%=      5-min Rain = 0
KRRS 110720Z 18006KT 23/18 A3012 RMK A01 T02270181  RH  079%=      5-min Rain = 0
KRRS 110725Z 18006KT 23/18 A3012 RMK A01 T02270181  RH  079%=      5-min Rain = 0
KRRS 110730Z 18006KT 23/18 A3012 RMK A01 T02270182  RH  080%=      5-min Rain = 0
KRRS 110735Z 19006KT 23/18 A3012 RMK A01 T02260182  RH  080%=      5-min Rain = 0
KRRS 110740Z 19006KT 23/18 A3011 RMK A01 T02260182  RH  080%=      5-min Rain = 0
KRRS 110745Z 19006KT 23/18 A3011 RMK A01 T02250183  RH  081%=      5-min Rain = 0
KRRS 110750Z 20005KT 23/18 A3011 RMK A01 T02250183  RH  081%=      5-min Rain = 0
KRRS 110755Z 19005KT 22/18 A3011 RMK A01 T02240182  RH  082%=      5-min Rain = 0
KRRS 110800Z 19006KT 22/18 A3011 RMK A01 T02240184  RH  082%=      5-min Rain = 0
KRRS 110805Z 19006KT 23/19 A3011 RMK A01 T02250185  RH  082%=      5-min Rain = 0
KRRS 110810Z 20006KT 22/19 A3011 RMK A01 T02240185  RH  083%=      5-min Rain = 0
KRRS 110815Z 20006KT 22/18 A3011 RMK A01 T02220184  RH  084%=      5-min Rain = 0
KRRS 110820Z 19006KT 22/19 A3011 RMK A01 T02210185  RH  085%=      5-min Rain = 0
KRRS 110825Z 19005KT 22/19 A3011 RMK A01 T02220186  RH  085%=      5-min Rain = 0
KRRS 110830Z 20005KT 22/19 A3011 RMK A01 T02210186  RH  085%=      5-min Rain = 0
KRRS 110835Z 20005KT 22/19 A3011 RMK A01 T02200186  RH  086%=      5-min Rain = 0
KRRS 110840Z 20005KT 22/19 A3011 RMK A01 T02200186  RH  086%=      5-min Rain = 0
KRRS 110845Z 20004KT 22/19 A3011 RMK A01 T02190186  RH  086%=      5-min Rain = 0
KRRS 110850Z 20004KT 22/19 A3011 RMK A01 T02200186  RH  086%=      5-min Rain = 0
KRRS 110855Z 21004KT 22/19 A3011 RMK A01 T02200186  RH  086%=      5-min Rain = 0
KRRS 110900Z 21004KT 22/19 A3011 RMK A01 T02200187  RH  086%=      5-min Rain = 0
KRRS 110905Z 20005KT 22/19 A3011 RMK A01 T02210187  RH  086%=      5-min Rain = 0
KRRS 110910Z 20005KT 22/19 A3011 RMK A01 T02220188  RH  086%=      5-min Rain = 0
KRRS 110915Z 21005KT 22/19 A3011 RMK A01 T02200188  RH  086%=      5-min Rain = 0
KRRS 110920Z 20005KT 22/19 A3011 RMK A01 T02200188  RH  087%=      5-min Rain = 0
KRRS 110925Z 20006KT 22/19 A3011 RMK A01 T02210189  RH  087%=      5-min Rain = 0
KRRS 110930Z 21006KT 22/19 A3011 RMK A01 T02220189  RH  086%=      5-min Rain = 0
KRRS 110935Z 20006KT 22/19 A301 RMK A01 T02220189  RH  086%=      5-min Rain = 0
KRRS 110940Z 20006KT 22/19 A301 RMK A01 T02240190  RH  086%=      5-min Rain = 0
KRRS 110945Z 20006KT 23/19 A301 RMK A01 T02250190  RH  085%=      5-min Rain = 0
KRRS 110950Z 19006KT 23/19 A301 RMK A01 T02260190  RH  085%=      5-min Rain = 0
KRRS 110955Z 19006KT 23/19 A301 RMK A01 T02270190  RH  084%=      5-min Rain = 0
KRRS 111000Z 19006KT 23/19 A301 RMK A01 T02280190  RH  084%=      5-min Rain = 0
KRRS 111005Z 19006KT 23/19 A301 RMK A01 T02280190  RH  084%=      5-min Rain = 0
KRRS 111010Z 19006KT 23/19 A301 RMK A01 T02270190  RH  084%=      5-min Rain = 0
KRRS 111015Z 19005KT 23/19 A3009 RMK A01 T02270191  RH  085%=      5-min Rain = 0
KRRS 111020Z 20005KT 23/19 A3009 RMK A01 T02270191  RH  085%=      5-min Rain = 0
KRRS 111025Z 21005KT 23/19 A3009 RMK A01 T02250190  RH  085%=      5-min Rain = 0
KRRS 111030Z 22005KT 22/19 A3009 RMK A01 T02220190  RH  087%=      5-min Rain = 0
KRRS 111035Z 22004KT 22/19 A3009 RMK A01 T02200190  RH  088%=      5-min Rain = 0
KRRS 111040Z 23004KT 22/19 A3009 RMK A01 T02190189  RH  088%=      5-min Rain = 0
KRRS 111045Z 24004KT 22/19 A3009 RMK A01 T02190189  RH  088%=      5-min Rain = 0
KRRS 111050Z 26003KT 22/19 A3009 RMK A01 T02190189  RH  088%=      5-min Rain = 0
KRRS 111055Z 26004KT 22/19 A3009 RMK A01 T02190189  RH  088%=      5-min Rain = 0
KRRS 111100Z 25004KT 22/19 A3009 RMK A01 T02190188  RH  088%=      5-min Rain = 0
KRRS 111105Z 24004KT 22/19 A3009 RMK A01 T02190188  RH  087%=      5-min Rain = 0
KRRS 111110Z 23004KT 22/19 A3009 RMK A01 T02190188  RH  087%=      5-min Rain = 0
KRRS 111115Z 23004KT 22/19 A3009 RMK A01 T02190188  RH  087%=      5-min Rain = 0
KRRS 111120Z 22004KT 22/19 A3009 RMK A01 T02180187  RH  088%=      5-min Rain = 0
KRRS 111125Z 22003KT 22/19 A301 RMK A01 T02170187  RH  088%=      5-min Rain = 0
KRRS 111130Z 22003KT 22/19 A301 RMK A01 T02170187  RH  088%=      5-min Rain = 0
KRRS 111135Z 22002KT 22/19 A301 RMK A01 T02170187  RH  088%=      5-min Rain = 0
KRRS 111140Z 21002KT 22/19 A301 RMK A01 T02180187  RH  087%=      5-min Rain = 0
KRRS 111145Z 21003KT 22/19 A3011 RMK A01 T02190187  RH  087%=      5-min Rain = 0
KRRS 111150Z 21003KT 22/19 A3011 RMK A01 T02190186  RH  086%=      5-min Rain = 0
KRRS 111155Z 21004KT 22/19 A3011 RMK A01 T02190185  RH  086%=      5-min Rain = 0
KRRS 111200Z 21005KT 22/19 A3011 RMK A01 T02190185  RH  086%=      5-min Rain = 0
KRRS 111205Z 21006KT 22/19 A3011 RMK A01 T02180185  RH  086%=      5-min Rain = 0
KRRS 111210Z 21006KT 22/19 A3011 RMK A01 T02150185  RH  087%=      5-min Rain = 0
KRRS 111215Z 21007KT 22/19 A3011 RMK A01 T02150185  RH  088%=      5-min Rain = 0
KRRS 111220Z 21006KT 22/19 A3011 RMK A01 T02170186  RH  087%=      5-min Rain = 0
KRRS 111225Z 21006KT 22/19 A3011 RMK A01 T02200186  RH  086%=      5-min Rain = 0
KRRS 111230Z 21006KT 22/19 A3011 RMK A01 T02210186  RH  085%=      5-min Rain = 0
KRRS 111235Z 22005KT 22/19 A3011 RMK A01 T02210186  RH  085%=      5-min Rain = 0
KRRS 111240Z 22005KT 22/19 A3011 RMK A01 T02220187  RH  085%=      5-min Rain = 0
KRRS 111245Z 22005KT 22/19 A3011 RMK A01 T02240187  RH  084%=      5-min Rain = 0
KRRS 111250Z 21005KT 23/19 A3011 RMK A01 T02280187  RH  082%=      5-min Rain = 0
KRRS 111255Z 21005KT 23/19 A3012 RMK A01 T02310186  RH  080%=      5-min Rain = 0
KRRS 111300Z 21006KT 23/18 A3011 RMK A01 T02320184  RH  078%=      5-min Rain = 0
KRRS 111305Z 21007KT 23/18 A3011 RMK A01 T02330184  RH  078%=      5-min Rain = 0
KRRS 111310Z 22007KT 24/18 A3012 RMK A01 T02370182  RH  075%=      5-min Rain = 0
KRRS 111315Z 22007KT 24/18 A3012 RMK A01 T02410181  RH  073%=      5-min Rain = 0
KRRS 111320Z 22008KT 25/18 A3012 RMK A01 T02470181  RH  070%=      5-min Rain = 0
KRRS 111325Z 22010KT 25/18 A3012 RMK A01 T02540179  RH  067%=      5-min Rain = 0
KRRS 111330Z 22012KT 26/18 A3012 RMK A01 T02590176  RH  063%=      5-min Rain = 0
KRRS 111335Z 22013KT 26/17 A3012 RMK A01 T02640174  RH  061%=      5-min Rain = 0
KRRS 111340Z 22012KT 27/17 A3012 RMK A01 T02670174  RH  060%=      5-min Rain = 0
KRRS 111345Z 22014KT 27/17 A3013 RMK A01 T02690172  RH  058%=      5-min Rain = 0
KRRS 111350Z 22014KT 27/17 A3013 RMK A01 T02710172  RH  057%=      5-min Rain = 0
KRRS 111355Z 22014G19KT 27/17 A3013 RMK A01 T02720172  RH  057%=      5-min Rain = 0
KRRS 111400Z 21016KT 27/17 A3013 RMK A01 T02740172  RH  057%=      5-min Rain = 0
KRRS 111405Z 22013G18KT 28/17 A3013 RMK A01 T02750173  RH  057%=      5-min Rain = 0
KRRS 111410Z 22014G21KT 28/17 A3013 RMK A01 T02770173  RH  056%=      5-min Rain = 0
KRRS 111415Z 22012G18KT 28/17 A3013 RMK A01 T02780174  RH  056%=      5-min Rain = 0
KRRS 111420Z 22015G20KT 28/17 A3014 RMK A01 T02800174  RH  055%=      5-min Rain = 0
KRRS 111425Z 23015G20KT 28/17 A3014 RMK A01 T02800174  RH  055%=      5-min Rain = 0
KRRS 111430Z 21015KT 28/18 A3014 RMK A01 T02820175  RH  055%=      5-min Rain = 0
KRRS 111435Z 21013G18KT 29/18 A3014 RMK A01 T02850176  RH  055%=      5-min Rain = 0
KRRS 111440Z 22012KT 29/18 A3014 RMK A01 T02870177  RH  054%=      5-min Rain = 0
KRRS 111445Z 21013KT 29/18 A3014 RMK A01 T02890177  RH  054%=      5-min Rain = 0
KRRS 111450Z 21014KT 29/18 A3014 RMK A01 T02890176  RH  053%=      5-min Rain = 0
KRRS 111455Z 20013KT 29/18 A3013 RMK A01 T02900176  RH  053%=      5-min Rain = 0
KRRS 111500Z 21015KT 29/17 A3013 RMK A01 T02910174  RH  052%=      5-min Rain = 0
KRRS 111505Z 21014KT 29/18 A3013 RMK A01 T02920175  RH  052%=      5-min Rain = 0
KRRS 111510Z 21014KT 30/18 A3013 RMK A01 T02950175  RH  051%=      5-min Rain = 0
KRRS 111515Z 21015KT 30/17 A3013 RMK A01 T02950174  RH  051%=      5-min Rain = 0
KRRS 111520Z 22013KT 30/17 A3013 RMK A01 T02960174  RH  050%=      5-min Rain = 0
KRRS 111525Z 20014KT 30/17 A3013 RMK A01 T02970174  RH  050%=      5-min Rain = 0
KRRS 111530Z 20014KT 30/17 A3013 RMK A01 T02980171  RH  049%=      5-min Rain = 0
KRRS 111535Z 20013KT 30/17 A3013 RMK A01 T03000172  RH  048%=      5-min Rain = 0
KRRS 111540Z 20012KT 30/18 A3013 RMK A01 T03030175  RH  049%=      5-min Rain = 0
KRRS 111545Z 22011G17KT 31/17 A3013 RMK A01 T03070174  RH  047%=      5-min Rain = 0
KRRS 111550Z 21012G17KT 31/17 A3013 RMK A01 T03060173  RH  047%=      5-min Rain = 0
KRRS 111555Z 21012G17KT 31/17 A3013 RMK A01 T03050172  RH  047%=      5-min Rain = 0
KRRS 111600Z 22011G17KT 30/17 A3013 RMK A01 T03040172  RH  048%=      5-min Rain = 0
KRRS 111605Z 22011KT 31/17 A3013 RMK A01 T03060173  RH  047%=      5-min Rain = 0
KRRS 111610Z 19012KT 31/17 A3013 RMK A01 T03090171  RH  046%=      5-min Rain = 0
KRRS 111615Z 19011KT 31/17 A3013 RMK A01 T03110169  RH  045%=      5-min Rain = 0
KRRS 111620Z 20011G16KT 31/17 A3013 RMK A01 T03100167  RH  044%=      5-min Rain = 0
KRRS 111625Z 19011KT 31/17 A3012 RMK A01 T03100170  RH  045%=      5-min Rain = 0
KRRS 111630Z 20010G17KT 31/17 A3012 RMK A01 T03140170  RH  044%=      5-min Rain = 0
KRRS 111635Z 19010KT 31/16 A3012 RMK A01 T03130161  RH  042%=      5-min Rain = 0
KRRS 111640Z 18009G18KT 32/16 A3012 RMK A01 T03150162  RH  042%=      5-min Rain = 0
KRRS 111645Z 19009G15KT 32/16 A3012 RMK A01 T03150159  RH  041%=      5-min Rain = 0
KRRS 111650Z 20008G14KT 31/16 A3012 RMK A01 T03140159  RH  041%=      5-min Rain = 0
KRRS 111655Z 17010KT 32/16 A3012 RMK A01 T03150160  RH  041%=      5-min Rain = 0
KRRS 111700Z 20007KT 32/16 A3012 RMK A01 T03150155  RH  040%=      5-min Rain = 0
KRRS 111705Z 20012KT 32/15 A3012 RMK A01 T03190147  RH  037%=      5-min Rain = 0
KRRS 111710Z 20010G19KT 32/15 A3012 RMK A01 T03220150  RH  037%=      5-min Rain = 0
KRRS 111715Z 19010G16KT 32/15 A3012 RMK A01 T03190145  RH  036%=      5-min Rain = 0
KRRS 111720Z 18009G17KT 32/15 A3012 RMK A01 T03170150  RH  038%=      5-min Rain = 0
KRRS 111725Z 18011G17KT 32/15 A3011 RMK A01 T03190149  RH  037%=      5-min Rain = 0
KRRS 111730Z 19014KT 33/14 A3011 RMK A01 T03250141  RH  034%=      5-min Rain = 0
KRRS 111735Z 18010G15KT 33/14 A3012 RMK A01 T03260143  RH  035%=      5-min Rain = 0
KRRS 111740Z 18009G15KT 32/15 A3011 RMK A01 T03230148  RH  036%=      5-min Rain = 0
KRRS 111745Z 17013G18KT 32/14 A3011 RMK A01 T03190142  RH  036%=      5-min Rain = 0
KRRS 111750Z 19013G18KT 32/14 A3011 RMK A01 T03190143  RH  036%=      5-min Rain = 0
KRRS 111755Z 18012G18KT 32/14 A3011 RMK A01 T03210143  RH  036%=      5-min Rain = 0
KRRS 111800Z 17012G18KT 33/14 A3011 RMK A01 T03260142  RH  034%=      5-min Rain = 0
KRRS 111805Z 18012G21KT 33/14 A301 RMK A01 T03270142  RH  034%=      5-min Rain = 0
KRRS 111810Z 16014G20KT 33/14 A301 RMK A01 T03260137  RH  033%=      5-min Rain = 0
KRRS 111815Z 17013KT 33/15 A301 RMK A01 T03280145  RH  034%=      5-min Rain = 0
KRRS 111820Z 19014KT 33/15 A301 RMK A01 T03320146  RH  034%=      5-min Rain = 0
KRRS 111825Z 18014G20KT 32/15 A301 RMK A01 T03230149  RH  036%=      5-min Rain = 0
KRRS 111830Z 16014G21KT 33/15 A301 RMK A01 T03280150  RH  036%=      5-min Rain = 0
KRRS 111835Z 17013G25KT 33/16 A3009 RMK A01 T03330155  RH  036%=      5-min Rain = 0
KRRS 111840Z 19014G24KT 33/15 A3009 RMK A01 T03330154  RH  036%=      5-min Rain = 0
KRRS 111845Z 16012G17KT 33/16 A3009 RMK A01 T03300155  RH  037%=      5-min Rain = 0
KRRS 111850Z 16015G21KT 33/15 A3009 RMK A01 T03310153  RH  036%=      5-min Rain = 0
KRRS 111855Z 19012KT 33/15 A3009 RMK A01 T03270154  RH  037%=      5-min Rain = 0
KRRS 111900Z 15012G20KT 33/15 A3009 RMK A01 T03280154  RH  037%=      5-min Rain = 0
KRRS 111905Z 18012G20KT 34/15 A3009 RMK A01 T03350147  RH  034%=      5-min Rain = 0
KRRS 111910Z 18012G17KT 33/15 A3008 RMK A01 T03330149  RH  034%=      5-min Rain = 0
KRRS 111915Z 17013G19KT 33/14 A3008 RMK A01 T03310144  RH  034%=      5-min Rain = 0
KRRS 111920Z 16012G17KT 33/15 A3008 RMK A01 T03330146  RH  034%=      5-min Rain = 0
KRRS 111925Z 16015G20KT 34/15 A3007 RMK A01 T03370151  RH  034%=      5-min Rain = 0
KRRS 111930Z 16013G20KT 33/15 A3007 RMK A01 T03340150  RH  035%=      5-min Rain = 0
KRRS 111935Z 15013G20KT 33/15 A3007 RMK A01 T03270147  RH  035%=      5-min Rain = 0
KRRS 111940Z 15015G20KT 33/15 A3007 RMK A01 T03320145  RH  034%=      5-min Rain = 0
KRRS 111945Z 19012G17KT 34/15 A3007 RMK A01 T03350147  RH  034%=      5-min Rain = 0
KRRS 111950Z 18013G20KT 33/15 A3007 RMK A01 T03340146  RH  034%=      5-min Rain = 0
KRRS 111955Z 17010KT 33/14 A3007 RMK A01 T03290143  RH  034%=      5-min Rain = 0
KRRS 112000Z 18014G21KT 33/14 A3006 RMK A01 T03290143  RH  034%=      5-min Rain = 0
KRRS 112005Z 15011G17KT 34/15 A3006 RMK A01 T03380146  RH  033%=      5-min Rain = 0
KRRS 112010Z 17013G21KT 34/14 A3006 RMK A01 T03420137  RH  030%=      5-min Rain = 0
KRRS 112015Z 18011G17KT 34/14 A3006 RMK A01 T03440138  RH  030%=      5-min Rain = 0
KRRS 112020Z 19016G21KT 35/14 A3005 RMK A01 T03480140  RH  030%=      5-min Rain = 0
KRRS 112025Z 17013G19KT 34/14 A3005 RMK A01 T03380138  RH  031%=      5-min Rain = 0
KRRS 112030Z 20013G20KT 33/14 A3005 RMK A01 T03320135  RH  032%=      5-min Rain = 0
KRRS 112035Z 16015KT 33/14 A3005 RMK A01 T03300135  RH  032%=      5-min Rain = 0
KRRS 112040Z 16015G21KT 34/14 A3004 RMK A01 T03390135  RH  031%=      5-min Rain = 0
KRRS 112045Z 19012G18KT 34/13 A3004 RMK A01 T03430132  RH  029%=      5-min Rain = 0
KRRS 112050Z 17013G19KT 34/13 A3004 RMK A01 T03380134  RH  030%=      5-min Rain = 0
KRRS 112055Z 15013G19KT 34/14 A3004 RMK A01 T03360137  RH  031%=      5-min Rain = 0
KRRS 112100Z 15011G16KT 33/14 A3004 RMK A01 T03340138  RH  032%=      5-min Rain = 0
KRRS 112105Z 16013G18KT 34/13 A3004 RMK A01 T03400132  RH  030%=      5-min Rain = 0
KRRS 112110Z 16013KT 34/13 A3003 RMK A01 T03410134  RH  030%=      5-min Rain = 0
KRRS 112115Z 17011G16KT 35/14 A3003 RMK A01 T03490138  RH  029%=      5-min Rain = 0
KRRS 112120Z 17013G19KT 35/13 A3003 RMK A01 T03470132  RH  029%=      5-min Rain = 0
KRRS 112125Z 18013KT 34/13 A3003 RMK A01 T03430131  RH  029%=      5-min Rain = 0
KRRS 112130Z 19011KT 34/13 A3002 RMK A01 T03410131  RH  029%=      5-min Rain = 0
KRRS 112135Z 16010KT 34/13 A3002 RMK A01 T03400130  RH  029%=      5-min Rain = 0
KRRS 112140Z 16012G18KT 35/13 A3002 RMK A01 T03460131  RH  029%=      5-min Rain = 0
KRRS 112145Z 15011KT 35/13 A3002 RMK A01 T03460129  RH  028%=      5-min Rain = 0
KRRS 112150Z 17010KT 34/13 A3002 RMK A01 T03430127  RH  028%=      5-min Rain = 0
KRRS 112155Z 15014G20KT 34/13 A3002 RMK A01 T03430131  RH  029%=      5-min Rain = 0
KRRS 112200Z 16011G16KT 34/13 A3002 RMK A01 T03390128  RH  029%=      5-min Rain = 0
KRRS 112205Z 16009G14KT 33/13 A3001 RMK A01 T03340125  RH  029%=      5-min Rain = 0
KRRS 112210Z 16008G14KT 34/13 A3001 RMK A01 T03420132  RH  029%=      5-min Rain = 0
KRRS 112215Z 16012G18KT 35/13 A3001 RMK A01 T03470129  RH  028%=      5-min Rain = 0
KRRS 112220Z 16010G16KT 35/13 A3001 RMK A01 T03490131  RH  028%=      5-min Rain = 0
KRRS 112225Z 17013G18KT 35/13 A3001 RMK A01 T03470125  RH  027%=      5-min Rain = 0
KRRS 112230Z 18011G17KT 35/12 A3001 RMK A01 T03450124  RH  027%=      5-min Rain = 0
KRRS 112235Z 17011G17KT 35/13 A30 RMK A01 T03480125  RH  027%=      5-min Rain = 0
KRRS 112240Z 17011G16KT 35/12 A30 RMK A01 T03480124  RH  027%=      5-min Rain = 0
KRRS 112245Z 17010KT 34/12 A30 RMK A01 T03410123  RH  028%=      5-min Rain = 0
KRRS 112250Z 18012G19KT 34/13 A30 RMK A01 T03400126  RH  028%=      5-min Rain = 0
KRRS 112255Z 19011G17KT 35/13 A30 RMK A01 T03450126  RH  028%=      5-min Rain = 0
KRRS 112300Z 19011KT 34/12 A30 RMK A01 T03410123  RH  028%=      5-min Rain = 0
KRRS 112305Z 18011KT 34/12 A30 RMK A01 T03410123  RH  028%=      5-min Rain = 0
KRRS 112310Z 17011G17KT 34/13 A30 RMK A01 T03380128  RH  029%=      5-min Rain = 0
KRRS 112315Z 15014KT 34/13 A30 RMK A01 T03380131  RH  030%=      5-min Rain = 0
KRRS 112320Z 17011KT 34/13 A30 RMK A01 T03370129  RH  029%=      5-min Rain = 0
KRRS 112325Z 15011KT 34/13 A30 RMK A01 T03370134  RH  031%=      5-min Rain = 0
KRRS 112330Z 14012KT 33/13 A30 RMK A01 T03340133  RH  031%=      5-min Rain = 0
KRRS 112335Z 15010KT 33/13 A30 RMK A01 T03320134  RH  031%=      5-min Rain = 0
KRRS 112340Z 15009G14KT 34/14 A2999 RMK A01 T03360136  RH  031%=      5-min Rain = 0
KRRS 112345Z 15011G16KT 34/13 A2999 RMK A01 T03400134  RH  030%=      5-min Rain = 0
KRRS 112350Z 16010KT 34/13 A2999 RMK A01 T03370132  RH  030%=      5-min Rain = 0
KRRS 112355Z 16009KT 33/13 A30 RMK A01 T03340133  RH  031%=      5-min Rain = 0
KRRS 120000Z 17008KT 33/13 A30 RMK A01 T03320131  RH  031%=      5-min Rain = 0
KRRS 120005Z 17007KT 33/13 A30 RMK A01 T03320130  RH  031%=      5-min Rain = 0
KRRS 120010Z 16008KT 33/13 A30 RMK A01 T03320130  RH  031%=      5-min Rain = 0
KRRS 120015Z 16008KT 33/13 A30 RMK A01 T03310132  RH  031%=      5-min Rain = 0
KRRS 120020Z 16007G12KT 33/13 A30 RMK A01 T03310133  RH  031%=      5-min Rain = 0
KRRS 120025Z 17007KT 33/13 A30 RMK A01 T03300131  RH  031%=      5-min Rain = 0
KRRS 120030Z 18008KT 33/13 A30 RMK A01 T03300130  RH  031%=      5-min Rain = 0
KRRS 120035Z 17008G13KT 33/13 A30 RMK A01 T03300131  RH  031%=      5-min Rain = 0
KRRS 120040Z 16009G14KT 33/13 A30 RMK A01 T03290130  RH  031%=      5-min Rain = 0
KRRS 120045Z 17008KT 33/13 A30 RMK A01 T03280129  RH  031%=      5-min Rain = 0
KRRS 120050Z 16007KT 33/13 A3001 RMK A01 T03270130  RH  032%=      5-min Rain = 0
KRRS 120055Z 16007KT 33/13 A3001 RMK A01 T03250132  RH  032%=      5-min Rain = 0
KRRS 120100Z 16006KT 32/13 A3001 RMK A01 T03230134  RH  033%=      5-min Rain = 0
KRRS 120105Z 15007KT 32/14 A3001 RMK A01 T03220135  RH  034%=      5-min Rain = 0
KRRS 120110Z 15007KT 32/14 A3001 RMK A01 T03210137  RH  034%=      5-min Rain = 0
KRRS 120115Z 16006KT 32/14 A3001 RMK A01 T03190138  RH  035%=      5-min Rain = 0
KRRS 120120Z 15007KT 32/14 A3001 RMK A01 T03180140  RH  035%=      5-min Rain = 0
KRRS 120125Z 16007KT 32/14 A3001 RMK A01 T03170140  RH  036%=      5-min Rain = 0
KRRS 120130Z 16006KT 32/14 A3002 RMK A01 T03150141  RH  036%=      5-min Rain = 0
KRRS 120135Z 16006KT 31/14 A3001 RMK A01 T03130141  RH  037%=      5-min Rain = 0
KRRS 120140Z 15006KT 31/14 A3001 RMK A01 T03120142  RH  037%=      5-min Rain = 0
KRRS 120145Z 16006KT 31/14 A3001 RMK A01 T03090143  RH  038%=      5-min Rain = 0
KRRS 120150Z 15005KT 31/14 A3002 RMK A01 T03080144  RH  039%=      5-min Rain = 0
KRRS 120155Z 15006KT 31/15 A3002 RMK A01 T03060145  RH  039%=      5-min Rain = 0
KRRS 120200Z 15005KT 30/15 A3002 RMK A01 T03040146  RH  040%=      5-min Rain = 0
KRRS 120205Z 15006KT 30/15 A3002 RMK A01 T03020146  RH  040%=      5-min Rain = 0
KRRS 120210Z 15006KT 30/15 A3002 RMK A01 T03010147  RH  041%=      5-min Rain = 0
KRRS 120215Z 15006KT 30/15 A3002 RMK A01 T03000146  RH  041%=      5-min Rain = 0
KRRS 120220Z 15006KT 30/15 A3002 RMK A01 T02990146  RH  041%=      5-min Rain = 0
KRRS 120225Z 15006KT 30/15 A3002 RMK A01 T02970147  RH  042%=      5-min Rain = 0
KRRS 120230Z 14007KT 30/15 A3002 RMK A01 T02960147  RH  042%=      5-min Rain = 0
KRRS 120235Z 14007KT 30/15 A3002 RMK A01 T02950148  RH  043%=      5-min Rain = 0
KRRS 120240Z 14007KT 29/15 A3003 RMK A01 T02930149  RH  043%=      5-min Rain = 0
KRRS 120245Z 14007KT 29/15 A3003 RMK A01 T02930149  RH  043%=      5-min Rain = 0
KRRS 120250Z 14007KT 29/15 A3003 RMK A01 T02930149  RH  043%=      5-min Rain = 0
KRRS 120255Z 14007KT 29/15 A3003 RMK A01 T02930150  RH  044%=      5-min Rain = 0
KRRS 120300Z 14006KT 29/15 A3004 RMK A01 T02920150  RH  044%=      5-min Rain = 0
KRRS 120305Z 14006KT 29/15 A3004 RMK A01 T02910151  RH  044%=      5-min Rain = 0
KRRS 120310Z 14006KT 29/15 A3004 RMK A01 T02910152  RH  045%=      5-min Rain = 0
KRRS 120315Z 15005KT 29/15 A3004 RMK A01 T02910152  RH  045%=      5-min Rain = 0
KRRS 120320Z 16005KT 29/15 A3005 RMK A01 T02910152  RH  045%=      5-min Rain = 0
KRRS 120325Z 16004KT 29/15 A3005 RMK A01 T02910152  RH  045%=      5-min Rain = 0
KRRS 120330Z 16004KT 29/15 A3005 RMK A01 T02890153  RH  046%=      5-min Rain = 0
KRRS 120335Z 16004KT 29/15 A3005 RMK A01 T02880153  RH  046%=      5-min Rain = 0
KRRS 120340Z 16004KT 29/15 A3005 RMK A01 T02880153  RH  046%=      5-min Rain = 0
KRRS 120345Z 16005KT 29/16 A3005 RMK A01 T02860155  RH  047%=      5-min Rain = 0
KRRS 120350Z 16005KT 29/15 A3006 RMK A01 T02850154  RH  047%=      5-min Rain = 0
KRRS 120355Z 16004KT 29/15 A3006 RMK A01 T02860153  RH  046%=      5-min Rain = 0
KRRS 120400Z 16004KT 29/15 A3006 RMK A01 T02860153  RH  047%=      5-min Rain = 0
KRRS 120405Z 16004KT 29/15 A3006 RMK A01 T02850154  RH  047%=      5-min Rain = 0
KRRS 120410Z 16004KT 28/15 A3006 RMK A01 T02840154  RH  047%=      5-min Rain = 0
KRRS 120415Z 15005KT 28/16 A3006 RMK A01 T02830155  RH  048%=      5-min Rain = 0
KRRS 120420Z 15005KT 28/16 A3006 RMK A01 T02810156  RH  049%=      5-min Rain = 0
KRRS 120425Z 15005KT 28/16 A3006 RMK A01 T02790156  RH  049%=      5-min Rain = 0
KRRS 120430Z 15005KT 28/16 A3006 RMK A01 T02780156  RH  050%=      5-min Rain = 0
KRRS 120435Z 15005KT 28/16 A3006 RMK A01 T02780155  RH  049%=      5-min Rain = 0
KRRS 120440Z 14006KT 28/15 A3006 RMK A01 T02780154  RH  049%=      5-min Rain = 0
KRRS 120445Z 14008KT 28/15 A3006 RMK A01 T02770154  RH  049%=      5-min Rain = 0
KRRS 120450Z 13009KT 28/15 A3006 RMK A01 T02790152  RH  048%=      5-min Rain = 0
KRRS 120455Z 14011KT 28/15 A3006 RMK A01 T02800154  RH  049%=      5-min Rain = 0

Page generated in 0.0134 seconds.